sensor_id;sensor_type;location;lat;lon;timestamp;P1;durP1;ratioP1;P2;durP2;ratioP2
59492;SDS011;45497;43.996;22.876;2023-05-21T00:01:09;17.27;;;6.30;;
59492;SDS011;45497;43.996;22.876;2023-05-21T00:03:40;19.48;;;6.50;;
59492;SDS011;45497;43.996;22.876;2023-05-21T00:06:06;16.13;;;6.57;;
59492;SDS011;45497;43.996;22.876;2023-05-21T00:08:32;16.50;;;6.10;;
59492;SDS011;45497;43.996;22.876;2023-05-21T00:10:58;15.43;;;6.30;;
59492;SDS011;45497;43.996;22.876;2023-05-21T00:13:24;16.13;;;5.78;;
59492;SDS011;45497;43.996;22.876;2023-05-21T00:15:49;14.03;;;5.97;;
59492;SDS011;45497;43.996;22.876;2023-05-21T00:18:15;19.67;;;6.10;;
59492;SDS011;45497;43.996;22.876;2023-05-21T00:20:40;18.27;;;6.20;;
59492;SDS011;45497;43.996;22.876;2023-05-21T00:23:06;19.67;;;6.18;;
59492;SDS011;45497;43.996;22.876;2023-05-21T00:25:31;17.67;;;5.93;;
59492;SDS011;45497;43.996;22.876;2023-05-21T00:27:57;18.05;;;5.82;;
59492;SDS011;45497;43.996;22.876;2023-05-21T00:30:22;17.87;;;6.30;;
59492;SDS011;45497;43.996;22.876;2023-05-21T00:32:48;16.25;;;6.20;;
59492;SDS011;45497;43.996;22.876;2023-05-21T00:35:13;14.37;;;5.70;;
59492;SDS011;45497;43.996;22.876;2023-05-21T00:37:39;12.37;;;5.60;;
59492;SDS011;45497;43.996;22.876;2023-05-21T00:40:05;12.97;;;6.03;;
59492;SDS011;45497;43.996;22.876;2023-05-21T00:42:35;16.13;;;6.28;;
59492;SDS011;45497;43.996;22.876;2023-05-21T00:45:05;18.00;;;6.10;;
59492;SDS011;45497;43.996;22.876;2023-05-21T00:47:31;18.10;;;6.40;;
59492;SDS011;45497;43.996;22.876;2023-05-21T00:49:58;14.40;;;6.35;;
59492;SDS011;45497;43.996;22.876;2023-05-21T00:52:24;12.87;;;6.33;;
59492;SDS011;45497;43.996;22.876;2023-05-21T00:54:51;15.20;;;5.90;;
59492;SDS011;45497;43.996;22.876;2023-05-21T00:57:20;16.95;;;6.15;;
59492;SDS011;45497;43.996;22.876;2023-05-21T00:59:49;15.47;;;6.33;;
59492;SDS011;45497;43.996;22.876;2023-05-21T01:02:16;20.08;;;7.00;;
59492;SDS011;45497;43.996;22.876;2023-05-21T01:04:45;14.90;;;6.88;;
59492;SDS011;45497;43.996;22.876;2023-05-21T01:07:11;17.73;;;6.90;;
59492;SDS011;45497;43.996;22.876;2023-05-21T01:09:39;17.97;;;6.53;;
59492;SDS011;45497;43.996;22.876;2023-05-21T01:12:05;19.85;;;7.00;;
59492;SDS011;45497;43.996;22.876;2023-05-21T01:14:32;15.15;;;6.15;;
59492;SDS011;45497;43.996;22.876;2023-05-21T01:17:00;14.88;;;6.22;;
59492;SDS011;45497;43.996;22.876;2023-05-21T01:19:27;17.27;;;6.47;;
59492;SDS011;45497;43.996;22.876;2023-05-21T01:22:04;18.25;;;6.90;;
59492;SDS011;45497;43.996;22.876;2023-05-21T01:24:30;15.82;;;6.40;;
59492;SDS011;45497;43.996;22.876;2023-05-21T01:26:57;17.60;;;6.77;;
59492;SDS011;45497;43.996;22.876;2023-05-21T01:29:23;17.70;;;7.05;;
59492;SDS011;45497;43.996;22.876;2023-05-21T01:34:49;16.33;;;6.55;;
59492;SDS011;45497;43.996;22.876;2023-05-21T01:37:48;16.35;;;6.75;;
59492;SDS011;45497;43.996;22.876;2023-05-21T01:40:30;17.58;;;6.97;;
59492;SDS011;45497;43.996;22.876;2023-05-21T01:43:02;14.60;;;6.30;;
59492;SDS011;45497;43.996;22.876;2023-05-21T01:45:30;19.02;;;7.05;;
59492;SDS011;45497;43.996;22.876;2023-05-21T01:47:57;15.10;;;6.38;;
59492;SDS011;45497;43.996;22.876;2023-05-21T01:50:23;13.23;;;6.30;;
59492;SDS011;45497;43.996;22.876;2023-05-21T01:52:54;17.38;;;6.82;;
59492;SDS011;45497;43.996;22.876;2023-05-21T01:55:22;17.00;;;6.72;;
59492;SDS011;45497;43.996;22.876;2023-05-21T01:57:54;15.13;;;6.32;;
59492;SDS011;45497;43.996;22.876;2023-05-21T02:00:20;15.27;;;6.45;;
59492;SDS011;45497;43.996;22.876;2023-05-21T02:02:48;16.60;;;6.65;;
59492;SDS011;45497;43.996;22.876;2023-05-21T02:05:14;13.15;;;6.07;;
59492;SDS011;45497;43.996;22.876;2023-05-21T02:07:40;13.65;;;6.70;;
59492;SDS011;45497;43.996;22.876;2023-05-21T02:10:07;16.35;;;6.38;;
59492;SDS011;45497;43.996;22.876;2023-05-21T02:12:33;16.70;;;6.87;;
59492;SDS011;45497;43.996;22.876;2023-05-21T02:14:59;16.83;;;7.33;;
59492;SDS011;45497;43.996;22.876;2023-05-21T02:17:25;16.00;;;7.10;;
59492;SDS011;45497;43.996;22.876;2023-05-21T02:19:50;15.00;;;7.47;;
59492;SDS011;45497;43.996;22.876;2023-05-21T02:22:16;28.95;;;17.48;;
59492;SDS011;45497;43.996;22.876;2023-05-21T02:24:41;29.67;;;18.10;;
59492;SDS011;45497;43.996;22.876;2023-05-21T02:27:07;26.20;;;15.23;;
59492;SDS011;45497;43.996;22.876;2023-05-21T02:29:34;26.25;;;13.52;;
59492;SDS011;45497;43.996;22.876;2023-05-21T02:32:00;21.30;;;11.70;;
59492;SDS011;45497;43.996;22.876;2023-05-21T02:34:26;21.80;;;11.90;;
59492;SDS011;45497;43.996;22.876;2023-05-21T02:36:54;20.50;;;10.45;;
59492;SDS011;45497;43.996;22.876;2023-05-21T02:39:20;22.45;;;11.82;;
59492;SDS011;45497;43.996;22.876;2023-05-21T02:41:46;21.13;;;11.60;;
59492;SDS011;45497;43.996;22.876;2023-05-21T02:44:12;21.30;;;11.43;;
59492;SDS011;45497;43.996;22.876;2023-05-21T02:46:38;18.42;;;10.60;;
59492;SDS011;45497;43.996;22.876;2023-05-21T02:49:03;19.07;;;10.90;;
59492;SDS011;45497;43.996;22.876;2023-05-21T02:51:29;19.40;;;9.02;;
59492;SDS011;45497;43.996;22.876;2023-05-21T02:53:55;16.67;;;8.48;;
59492;SDS011;45497;43.996;22.876;2023-05-21T02:56:21;18.58;;;7.95;;
59492;SDS011;45497;43.996;22.876;2023-05-21T02:58:46;19.40;;;7.90;;
59492;SDS011;45497;43.996;22.876;2023-05-21T03:01:12;19.57;;;8.10;;
59492;SDS011;45497;43.996;22.876;2023-05-21T03:03:37;18.20;;;7.43;;
59492;SDS011;45497;43.996;22.876;2023-05-21T03:06:02;14.53;;;6.80;;
59492;SDS011;45497;43.996;22.876;2023-05-21T03:08:28;18.83;;;7.43;;
59492;SDS011;45497;43.996;22.876;2023-05-21T03:10:53;13.07;;;7.17;;
59492;SDS011;45497;43.996;22.876;2023-05-21T03:13:19;13.82;;;7.15;;
59492;SDS011;45497;43.996;22.876;2023-05-21T03:15:46;16.50;;;7.47;;
59492;SDS011;45497;43.996;22.876;2023-05-21T03:18:12;16.83;;;7.45;;
59492;SDS011;45497;43.996;22.876;2023-05-21T03:20:38;18.00;;;7.90;;
59492;SDS011;45497;43.996;22.876;2023-05-21T03:23:09;14.63;;;7.43;;
59492;SDS011;45497;43.996;22.876;2023-05-21T03:25:36;19.70;;;7.90;;
59492;SDS011;45497;43.996;22.876;2023-05-21T03:28:02;18.83;;;7.65;;
59492;SDS011;45497;43.996;22.876;2023-05-21T03:30:28;12.10;;;6.97;;
59492;SDS011;45497;43.996;22.876;2023-05-21T03:32:53;17.33;;;7.63;;
59492;SDS011;45497;43.996;22.876;2023-05-21T03:35:20;18.52;;;7.88;;
59492;SDS011;45497;43.996;22.876;2023-05-21T03:37:45;17.03;;;7.70;;
59492;SDS011;45497;43.996;22.876;2023-05-21T03:40:11;16.77;;;7.07;;
59492;SDS011;45497;43.996;22.876;2023-05-21T03:42:37;17.38;;;6.88;;
59492;SDS011;45497;43.996;22.876;2023-05-21T03:45:03;16.10;;;7.27;;
59492;SDS011;45497;43.996;22.876;2023-05-21T03:47:30;15.25;;;7.28;;
59492;SDS011;45497;43.996;22.876;2023-05-21T03:49:55;17.58;;;7.32;;
59492;SDS011;45497;43.996;22.876;2023-05-21T03:52:21;15.13;;;7.07;;
59492;SDS011;45497;43.996;22.876;2023-05-21T03:54:46;17.30;;;6.68;;
59492;SDS011;45497;43.996;22.876;2023-05-21T03:57:12;16.17;;;7.77;;
59492;SDS011;45497;43.996;22.876;2023-05-21T03:59:37;16.50;;;7.90;;
59492;SDS011;45497;43.996;22.876;2023-05-21T04:02:03;16.50;;;7.30;;
59492;SDS011;45497;43.996;22.876;2023-05-21T04:04:29;19.08;;;7.50;;
59492;SDS011;45497;43.996;22.876;2023-05-21T04:06:54;17.83;;;7.15;;
59492;SDS011;45497;43.996;22.876;2023-05-21T04:09:20;16.60;;;7.70;;
59492;SDS011;45497;43.996;22.876;2023-05-21T04:11:46;18.30;;;7.97;;
59492;SDS011;45497;43.996;22.876;2023-05-21T04:14:12;19.25;;;8.88;;
59492;SDS011;45497;43.996;22.876;2023-05-21T04:16:37;18.42;;;8.15;;
59492;SDS011;45497;43.996;22.876;2023-05-21T04:19:03;15.80;;;7.67;;
59492;SDS011;45497;43.996;22.876;2023-05-21T04:21:29;17.95;;;7.40;;
59492;SDS011;45497;43.996;22.876;2023-05-21T04:23:56;17.92;;;7.88;;
59492;SDS011;45497;43.996;22.876;2023-05-21T04:26:22;17.67;;;7.13;;
59492;SDS011;45497;43.996;22.876;2023-05-21T04:28:49;16.08;;;7.10;;
59492;SDS011;45497;43.996;22.876;2023-05-21T04:31:15;21.08;;;7.63;;
59492;SDS011;45497;43.996;22.876;2023-05-21T04:33:40;18.98;;;7.45;;
59492;SDS011;45497;43.996;22.876;2023-05-21T04:36:09;17.20;;;6.85;;
59492;SDS011;45497;43.996;22.876;2023-05-21T04:38:35;16.85;;;6.90;;
59492;SDS011;45497;43.996;22.876;2023-05-21T04:41:02;16.95;;;6.72;;
59492;SDS011;45497;43.996;22.876;2023-05-21T04:43:28;18.85;;;7.18;;
59492;SDS011;45497;43.996;22.876;2023-05-21T04:45:54;16.95;;;6.88;;
59492;SDS011;45497;43.996;22.876;2023-05-21T04:48:20;16.95;;;6.90;;
59492;SDS011;45497;43.996;22.876;2023-05-21T04:50:48;12.57;;;6.47;;
59492;SDS011;45497;43.996;22.876;2023-05-21T04:53:15;15.40;;;6.95;;
59492;SDS011;45497;43.996;22.876;2023-05-21T04:55:40;16.55;;;6.85;;
59492;SDS011;45497;43.996;22.876;2023-05-21T04:58:06;11.73;;;6.37;;
59492;SDS011;45497;43.996;22.876;2023-05-21T05:00:36;14.38;;;7.18;;
59492;SDS011;45497;43.996;22.876;2023-05-21T05:03:02;18.17;;;7.15;;
59492;SDS011;45497;43.996;22.876;2023-05-21T05:05:28;15.63;;;6.63;;
59492;SDS011;45497;43.996;22.876;2023-05-21T05:07:54;17.47;;;6.53;;
59492;SDS011;45497;43.996;22.876;2023-05-21T05:10:20;17.95;;;7.07;;
59492;SDS011;45497;43.996;22.876;2023-05-21T05:12:45;15.48;;;7.10;;
59492;SDS011;45497;43.996;22.876;2023-05-21T05:15:12;15.13;;;7.38;;
59492;SDS011;45497;43.996;22.876;2023-05-21T05:17:37;15.90;;;7.30;;
59492;SDS011;45497;43.996;22.876;2023-05-21T05:20:04;19.70;;;7.23;;
59492;SDS011;45497;43.996;22.876;2023-05-21T05:22:31;18.88;;;7.80;;
59492;SDS011;45497;43.996;22.876;2023-05-21T05:24:57;15.23;;;7.13;;
59492;SDS011;45497;43.996;22.876;2023-05-21T05:27:22;18.63;;;8.23;;
59492;SDS011;45497;43.996;22.876;2023-05-21T05:29:47;15.90;;;7.78;;
59492;SDS011;45497;43.996;22.876;2023-05-21T05:32:13;16.53;;;7.90;;
59492;SDS011;45497;43.996;22.876;2023-05-21T05:34:38;15.43;;;7.77;;
59492;SDS011;45497;43.996;22.876;2023-05-21T05:37:04;15.70;;;7.27;;
59492;SDS011;45497;43.996;22.876;2023-05-21T05:39:29;16.60;;;8.03;;
59492;SDS011;45497;43.996;22.876;2023-05-21T05:41:55;15.93;;;8.77;;
59492;SDS011;45497;43.996;22.876;2023-05-21T05:44:20;20.23;;;8.40;;
59492;SDS011;45497;43.996;22.876;2023-05-21T05:46:46;15.85;;;8.15;;
59492;SDS011;45497;43.996;22.876;2023-05-21T05:49:11;19.07;;;7.70;;
59492;SDS011;45497;43.996;22.876;2023-05-21T05:51:37;13.80;;;7.00;;
59492;SDS011;45497;43.996;22.876;2023-05-21T05:54:03;18.20;;;8.00;;
59492;SDS011;45497;43.996;22.876;2023-05-21T05:56:29;18.77;;;8.70;;
59492;SDS011;45497;43.996;22.876;2023-05-21T05:58:54;12.83;;;7.33;;
59492;SDS011;45497;43.996;22.876;2023-05-21T06:01:20;15.20;;;8.23;;
59492;SDS011;45497;43.996;22.876;2023-05-21T06:03:48;19.02;;;8.07;;
59492;SDS011;45497;43.996;22.876;2023-05-21T06:06:14;17.98;;;7.85;;
59492;SDS011;45497;43.996;22.876;2023-05-21T06:08:41;19.75;;;8.23;;
59492;SDS011;45497;43.996;22.876;2023-05-21T06:11:06;19.10;;;8.65;;
59492;SDS011;45497;43.996;22.876;2023-05-21T06:13:32;19.83;;;7.97;;
59492;SDS011;45497;43.996;22.876;2023-05-21T06:15:58;21.60;;;8.27;;
59492;SDS011;45497;43.996;22.876;2023-05-21T06:18:23;18.10;;;9.80;;
59492;SDS011;45497;43.996;22.876;2023-05-21T06:20:49;22.90;;;8.88;;
59492;SDS011;45497;43.996;22.876;2023-05-21T06:23:14;17.88;;;8.80;;
59492;SDS011;45497;43.996;22.876;2023-05-21T06:25:40;15.67;;;7.20;;
59492;SDS011;45497;43.996;22.876;2023-05-21T06:28:06;13.97;;;7.70;;
59492;SDS011;45497;43.996;22.876;2023-05-21T06:30:31;18.00;;;8.03;;
59492;SDS011;45497;43.996;22.876;2023-05-21T06:32:57;16.53;;;8.00;;
59492;SDS011;45497;43.996;22.876;2023-05-21T06:35:22;12.80;;;7.25;;
59492;SDS011;45497;43.996;22.876;2023-05-21T06:37:48;15.77;;;7.63;;
59492;SDS011;45497;43.996;22.876;2023-05-21T06:40:13;19.58;;;7.55;;
59492;SDS011;45497;43.996;22.876;2023-05-21T06:42:39;15.63;;;6.90;;
59492;SDS011;45497;43.996;22.876;2023-05-21T06:45:05;18.97;;;7.43;;
59492;SDS011;45497;43.996;22.876;2023-05-21T06:47:30;14.82;;;7.15;;
59492;SDS011;45497;43.996;22.876;2023-05-21T06:49:57;15.80;;;7.90;;
59492;SDS011;45497;43.996;22.876;2023-05-21T06:52:23;15.45;;;7.15;;
59492;SDS011;45497;43.996;22.876;2023-05-21T06:54:50;15.52;;;6.72;;
59492;SDS011;45497;43.996;22.876;2023-05-21T06:57:16;14.50;;;6.60;;
59492;SDS011;45497;43.996;22.876;2023-05-21T06:59:41;15.60;;;6.80;;
59492;SDS011;45497;43.996;22.876;2023-05-21T07:02:07;12.03;;;6.17;;
59492;SDS011;45497;43.996;22.876;2023-05-21T07:04:32;13.80;;;6.32;;
59492;SDS011;45497;43.996;22.876;2023-05-21T07:06:59;13.90;;;6.70;;
59492;SDS011;45497;43.996;22.876;2023-05-21T07:09:25;16.25;;;6.82;;
59492;SDS011;45497;43.996;22.876;2023-05-21T07:11:50;16.93;;;6.60;;
59492;SDS011;45497;43.996;22.876;2023-05-21T07:14:17;18.57;;;7.13;;
59492;SDS011;45497;43.996;22.876;2023-05-21T07:16:43;12.63;;;7.10;;
59492;SDS011;45497;43.996;22.876;2023-05-21T07:19:09;14.73;;;7.15;;
59492;SDS011;45497;43.996;22.876;2023-05-21T07:21:35;15.83;;;7.13;;
59492;SDS011;45497;43.996;22.876;2023-05-21T07:24:00;17.73;;;7.20;;
59492;SDS011;45497;43.996;22.876;2023-05-21T07:26:26;15.38;;;6.75;;
59492;SDS011;45497;43.996;22.876;2023-05-21T07:28:51;19.70;;;7.17;;
59492;SDS011;45497;43.996;22.876;2023-05-21T07:31:17;16.83;;;6.73;;
59492;SDS011;45497;43.996;22.876;2023-05-21T07:33:42;18.85;;;6.50;;
59492;SDS011;45497;43.996;22.876;2023-05-21T07:36:08;17.07;;;6.87;;
59492;SDS011;45497;43.996;22.876;2023-05-21T07:38:33;19.00;;;7.10;;
59492;SDS011;45497;43.996;22.876;2023-05-21T07:40:59;17.15;;;6.57;;
59492;SDS011;45497;43.996;22.876;2023-05-21T07:43:24;17.40;;;6.50;;
59492;SDS011;45497;43.996;22.876;2023-05-21T07:45:50;17.90;;;7.37;;
59492;SDS011;45497;43.996;22.876;2023-05-21T07:48:16;16.13;;;7.40;;
59492;SDS011;45497;43.996;22.876;2023-05-21T07:50:42;17.45;;;7.00;;
59492;SDS011;45497;43.996;22.876;2023-05-21T07:53:08;11.80;;;5.90;;
59492;SDS011;45497;43.996;22.876;2023-05-21T07:55:35;14.20;;;6.50;;
59492;SDS011;45497;43.996;22.876;2023-05-21T07:58:00;16.67;;;6.53;;
59492;SDS011;45497;43.996;22.876;2023-05-21T08:00:26;17.27;;;6.83;;
59492;SDS011;45497;43.996;22.876;2023-05-21T08:02:51;18.10;;;7.07;;
59492;SDS011;45497;43.996;22.876;2023-05-21T08:05:17;15.97;;;6.33;;
59492;SDS011;45497;43.996;22.876;2023-05-21T08:07:43;14.27;;;6.55;;
59492;SDS011;45497;43.996;22.876;2023-05-21T08:10:10;14.03;;;6.37;;
59492;SDS011;45497;43.996;22.876;2023-05-21T08:12:35;19.13;;;7.00;;
59492;SDS011;45497;43.996;22.876;2023-05-21T08:15:01;17.17;;;6.37;;
59492;SDS011;45497;43.996;22.876;2023-05-21T08:17:26;17.87;;;6.13;;
59492;SDS011;45497;43.996;22.876;2023-05-21T08:19:55;18.95;;;6.55;;
59492;SDS011;45497;43.996;22.876;2023-05-21T08:22:20;17.83;;;5.93;;
59492;SDS011;45497;43.996;22.876;2023-05-21T08:24:46;19.15;;;5.82;;
59492;SDS011;45497;43.996;22.876;2023-05-21T08:27:12;14.50;;;5.00;;
59492;SDS011;45497;43.996;22.876;2023-05-21T08:29:39;16.67;;;5.20;;
59492;SDS011;45497;43.996;22.876;2023-05-21T08:32:04;19.55;;;5.22;;
59492;SDS011;45497;43.996;22.876;2023-05-21T08:34:30;17.40;;;5.13;;
59492;SDS011;45497;43.996;22.876;2023-05-21T08:36:55;12.77;;;4.80;;
59492;SDS011;45497;43.996;22.876;2023-05-21T08:39:21;15.20;;;5.38;;
59492;SDS011;45497;43.996;22.876;2023-05-21T08:41:46;13.17;;;4.97;;
59492;SDS011;45497;43.996;22.876;2023-05-21T08:44:17;11.70;;;5.32;;
59492;SDS011;45497;43.996;22.876;2023-05-21T08:46:48;15.75;;;5.10;;
59492;SDS011;45497;43.996;22.876;2023-05-21T08:49:15;10.57;;;4.60;;
59492;SDS011;45497;43.996;22.876;2023-05-21T08:51:43;19.13;;;5.25;;
59492;SDS011;45497;43.996;22.876;2023-05-21T08:54:10;13.38;;;5.13;;
59492;SDS011;45497;43.996;22.876;2023-05-21T08:56:38;21.70;;;5.80;;
59492;SDS011;45497;43.996;22.876;2023-05-21T08:59:09;14.88;;;5.38;;
59492;SDS011;45497;43.996;22.876;2023-05-21T09:01:35;14.80;;;5.07;;
59492;SDS011;45497;43.996;22.876;2023-05-21T09:04:02;15.60;;;4.90;;
59492;SDS011;45497;43.996;22.876;2023-05-21T09:06:28;19.00;;;5.70;;
59492;SDS011;45497;43.996;22.876;2023-05-21T09:09:02;17.33;;;5.32;;
59492;SDS011;45497;43.996;22.876;2023-05-21T09:11:33;15.13;;;5.00;;
59492;SDS011;45497;43.996;22.876;2023-05-21T09:13:59;15.85;;;5.20;;
59492;SDS011;45497;43.996;22.876;2023-05-21T09:16:26;17.73;;;5.07;;
59492;SDS011;45497;43.996;22.876;2023-05-21T09:18:53;16.02;;;5.05;;
59492;SDS011;45497;43.996;22.876;2023-05-21T09:21:21;17.37;;;5.17;;
59492;SDS011;45497;43.996;22.876;2023-05-21T09:23:53;15.73;;;5.03;;
59492;SDS011;45497;43.996;22.876;2023-05-21T09:26:22;11.02;;;4.60;;
59492;SDS011;45497;43.996;22.876;2023-05-21T09:28:58;12.35;;;4.75;;
59492;SDS011;45497;43.996;22.876;2023-05-21T09:31:24;13.25;;;5.05;;
59492;SDS011;45497;43.996;22.876;2023-05-21T09:33:51;16.17;;;5.17;;
59492;SDS011;45497;43.996;22.876;2023-05-21T09:36:17;13.98;;;4.72;;
59492;SDS011;45497;43.996;22.876;2023-05-21T09:38:47;17.65;;;5.10;;
59492;SDS011;45497;43.996;22.876;2023-05-21T09:41:13;12.15;;;4.65;;
59492;SDS011;45497;43.996;22.876;2023-05-21T09:43:42;13.00;;;4.50;;
59492;SDS011;45497;43.996;22.876;2023-05-21T09:46:08;11.32;;;4.78;;
59492;SDS011;45497;43.996;22.876;2023-05-21T09:48:52;14.82;;;5.03;;
59492;SDS011;45497;43.996;22.876;2023-05-21T09:51:18;16.92;;;5.18;;
59492;SDS011;45497;43.996;22.876;2023-05-21T09:53:57;17.00;;;5.30;;
59492;SDS011;45497;43.996;22.876;2023-05-21T09:56:24;17.45;;;5.30;;
59492;SDS011;45497;43.996;22.876;2023-05-21T09:58:59;14.80;;;4.90;;
59492;SDS011;45497;43.996;22.876;2023-05-21T10:01:29;16.77;;;4.97;;
59492;SDS011;45497;43.996;22.876;2023-05-21T10:03:57;13.00;;;5.15;;
59492;SDS011;45497;43.996;22.876;2023-05-21T10:06:28;8.77;;;4.32;;
59492;SDS011;45497;43.996;22.876;2023-05-21T10:08:56;16.70;;;5.13;;
59492;SDS011;45497;43.996;22.876;2023-05-21T10:11:24;13.10;;;4.88;;
59492;SDS011;45497;43.996;22.876;2023-05-21T10:13:59;13.45;;;5.30;;
59492;SDS011;45497;43.996;22.876;2023-05-21T10:16:32;16.05;;;5.13;;
59492;SDS011;45497;43.996;22.876;2023-05-21T10:18:59;14.90;;;4.97;;
59492;SDS011;45497;43.996;22.876;2023-05-21T10:21:25;10.77;;;4.53;;
59492;SDS011;45497;43.996;22.876;2023-05-21T10:23:52;16.00;;;5.15;;
59492;SDS011;45497;43.996;22.876;2023-05-21T10:26:20;19.13;;;5.82;;
59492;SDS011;45497;43.996;22.876;2023-05-21T10:28:50;14.00;;;5.07;;
59492;SDS011;45497;43.996;22.876;2023-05-21T10:31:16;10.02;;;4.90;;
59492;SDS011;45497;43.996;22.876;2023-05-21T10:33:42;11.38;;;4.00;;
59492;SDS011;45497;43.996;22.876;2023-05-21T10:36:08;17.07;;;5.20;;
59492;SDS011;45497;43.996;22.876;2023-05-21T10:38:34;14.85;;;5.28;;
59492;SDS011;45497;43.996;22.876;2023-05-21T10:41:01;10.37;;;4.87;;
59492;SDS011;45497;43.996;22.876;2023-05-21T10:46:42;10.85;;;4.70;;
59492;SDS011;45497;43.996;22.876;2023-05-21T10:49:30;9.05;;;4.50;;
59492;SDS011;45497;43.996;22.876;2023-05-21T10:59:58;14.77;;;4.80;;
59492;SDS011;45497;43.996;22.876;2023-05-21T11:02:25;9.38;;;4.47;;
59492;SDS011;45497;43.996;22.876;2023-05-21T11:05:00;13.10;;;5.00;;
59492;SDS011;45497;43.996;22.876;2023-05-21T11:21:02;13.07;;;4.73;;
59492;SDS011;45497;43.996;22.876;2023-05-21T11:23:55;11.80;;;4.75;;
59492;SDS011;45497;43.996;22.876;2023-05-21T11:27:12;13.35;;;4.85;;
59492;SDS011;45497;43.996;22.876;2023-05-21T11:29:14;14.57;;;4.60;;
59492;SDS011;45497;43.996;22.876;2023-05-21T11:31:46;11.77;;;4.43;;
59492;SDS011;45497;43.996;22.876;2023-05-21T11:34:23;10.88;;;4.50;;
59492;SDS011;45497;43.996;22.876;2023-05-21T11:39:46;9.93;;;4.40;;
59492;SDS011;45497;43.996;22.876;2023-05-21T11:42:12;12.65;;;4.63;;
59492;SDS011;45497;43.996;22.876;2023-05-21T11:45:03;10.07;;;4.35;;
59492;SDS011;45497;43.996;22.876;2023-05-21T11:47:29;12.15;;;4.22;;
59492;SDS011;45497;43.996;22.876;2023-05-21T11:49:57;12.98;;;4.30;;
59492;SDS011;45497;43.996;22.876;2023-05-21T11:52:24;13.65;;;4.68;;
59492;SDS011;45497;43.996;22.876;2023-05-21T11:54:53;14.15;;;4.55;;
59492;SDS011;45497;43.996;22.876;2023-05-21T11:57:26;15.95;;;5.03;;
59492;SDS011;45497;43.996;22.876;2023-05-21T11:59:55;16.83;;;4.53;;
59492;SDS011;45497;43.996;22.876;2023-05-21T12:02:23;11.65;;;4.30;;
59492;SDS011;45497;43.996;22.876;2023-05-21T12:04:49;11.32;;;4.22;;
59492;SDS011;45497;43.996;22.876;2023-05-21T12:07:16;15.70;;;4.47;;
59492;SDS011;45497;43.996;22.876;2023-05-21T12:09:47;14.70;;;4.45;;
59492;SDS011;45497;43.996;22.876;2023-05-21T12:12:14;14.75;;;4.65;;
59492;SDS011;45497;43.996;22.876;2023-05-21T12:14:45;13.38;;;4.47;;
59492;SDS011;45497;43.996;22.876;2023-05-21T12:17:16;12.20;;;4.15;;
59492;SDS011;45497;43.996;22.876;2023-05-21T12:19:43;11.97;;;4.40;;
59492;SDS011;45497;43.996;22.876;2023-05-21T12:22:10;14.88;;;4.78;;
59492;SDS011;45497;43.996;22.876;2023-05-21T12:24:36;11.02;;;4.40;;
59492;SDS011;45497;43.996;22.876;2023-05-21T12:27:03;14.13;;;4.90;;
59492;SDS011;45497;43.996;22.876;2023-05-21T12:29:37;15.25;;;4.82;;
59492;SDS011;45497;43.996;22.876;2023-05-21T12:32:05;13.90;;;4.80;;
59492;SDS011;45497;43.996;22.876;2023-05-21T12:34:39;11.43;;;4.22;;
59492;SDS011;45497;43.996;22.876;2023-05-21T12:37:08;11.73;;;4.40;;
59492;SDS011;45497;43.996;22.876;2023-05-21T12:39:39;10.63;;;4.15;;
59492;SDS011;45497;43.996;22.876;2023-05-21T12:42:07;12.10;;;4.72;;
59492;SDS011;45497;43.996;22.876;2023-05-21T12:44:33;10.80;;;4.30;;
59492;SDS011;45497;43.996;22.876;2023-05-21T12:46:59;9.15;;;4.00;;
59492;SDS011;45497;43.996;22.876;2023-05-21T12:50:25;11.20;;;4.18;;
59492;SDS011;45497;43.996;22.876;2023-05-21T12:52:23;13.27;;;4.68;;
59492;SDS011;45497;43.996;22.876;2023-05-21T12:54:50;15.02;;;4.30;;
59492;SDS011;45497;43.996;22.876;2023-05-21T12:59:50;16.02;;;4.63;;
59492;SDS011;45497;43.996;22.876;2023-05-21T13:04:55;11.38;;;4.32;;
59492;SDS011;45497;43.996;22.876;2023-05-21T13:07:22;11.30;;;4.30;;
59492;SDS011;45497;43.996;22.876;2023-05-21T13:09:50;10.65;;;4.03;;
59492;SDS011;45497;43.996;22.876;2023-05-21T13:12:17;12.00;;;4.18;;
59492;SDS011;45497;43.996;22.876;2023-05-21T13:14:50;11.27;;;3.90;;
59492;SDS011;45497;43.996;22.876;2023-05-21T13:17:17;12.43;;;4.85;;
59492;SDS011;45497;43.996;22.876;2023-05-21T13:19:45;9.80;;;3.90;;
59492;SDS011;45497;43.996;22.876;2023-05-21T13:22:50;10.70;;;4.20;;
59492;SDS011;45497;43.996;22.876;2023-05-21T13:25:17;11.77;;;4.25;;
59492;SDS011;45497;43.996;22.876;2023-05-21T13:27:48;11.98;;;4.70;;
59492;SDS011;45497;43.996;22.876;2023-05-21T13:30:15;15.00;;;4.80;;
59492;SDS011;45497;43.996;22.876;2023-05-21T13:32:42;10.00;;;4.35;;
59492;SDS011;45497;43.996;22.876;2023-05-21T13:35:08;12.93;;;4.25;;
59492;SDS011;45497;43.996;22.876;2023-05-21T13:37:35;11.70;;;4.10;;
59492;SDS011;45497;43.996;22.876;2023-05-21T13:40:02;12.98;;;4.47;;
59492;SDS011;45497;43.996;22.876;2023-05-21T13:42:31;9.82;;;4.07;;
59492;SDS011;45497;43.996;22.876;2023-05-21T13:44:57;12.18;;;4.28;;
59492;SDS011;45497;43.996;22.876;2023-05-21T13:47:23;11.13;;;4.30;;
59492;SDS011;45497;43.996;22.876;2023-05-21T13:49:49;11.07;;;4.07;;
59492;SDS011;45497;43.996;22.876;2023-05-21T13:52:15;13.13;;;3.83;;
59492;SDS011;45497;43.996;22.876;2023-05-21T13:54:41;15.48;;;4.50;;
59492;SDS011;45497;43.996;22.876;2023-05-21T13:57:06;16.38;;;4.20;;
59492;SDS011;45497;43.996;22.876;2023-05-21T13:59:32;12.80;;;3.63;;
59492;SDS011;45497;43.996;22.876;2023-05-21T14:01:57;16.87;;;3.67;;
59492;SDS011;45497;43.996;22.876;2023-05-21T14:04:23;13.17;;;3.40;;
59492;SDS011;45497;43.996;22.876;2023-05-21T14:06:49;14.50;;;3.40;;
59492;SDS011;45497;43.996;22.876;2023-05-21T14:09:14;21.60;;;4.07;;
59492;SDS011;45497;43.996;22.876;2023-05-21T14:11:40;23.50;;;4.32;;
59492;SDS011;45497;43.996;22.876;2023-05-21T14:14:06;17.33;;;4.13;;
59492;SDS011;45497;43.996;22.876;2023-05-21T14:16:31;16.08;;;4.57;;
59492;SDS011;45497;43.996;22.876;2023-05-21T14:18:57;17.37;;;3.80;;
59492;SDS011;45497;43.996;22.876;2023-05-21T14:21:23;14.63;;;4.38;;
59492;SDS011;45497;43.996;22.876;2023-05-21T14:23:49;18.77;;;4.55;;
59492;SDS011;45497;43.996;22.876;2023-05-21T14:26:16;15.95;;;4.30;;
59492;SDS011;45497;43.996;22.876;2023-05-21T14:28:42;12.85;;;4.15;;
59492;SDS011;45497;43.996;22.876;2023-05-21T14:31:08;11.37;;;3.90;;
59492;SDS011;45497;43.996;22.876;2023-05-21T14:33:34;12.68;;;4.10;;
59492;SDS011;45497;43.996;22.876;2023-05-21T14:36:01;20.70;;;5.22;;
59492;SDS011;45497;43.996;22.876;2023-05-21T14:38:27;15.47;;;5.50;;
59492;SDS011;45497;43.996;22.876;2023-05-21T14:40:53;16.10;;;5.18;;
59492;SDS011;45497;43.996;22.876;2023-05-21T14:43:19;15.43;;;5.57;;
59492;SDS011;45497;43.996;22.876;2023-05-21T14:45:44;24.40;;;6.95;;
59492;SDS011;45497;43.996;22.876;2023-05-21T14:48:10;24.00;;;6.00;;
59492;SDS011;45497;43.996;22.876;2023-05-21T14:50:39;17.30;;;4.30;;
59492;SDS011;45497;43.996;22.876;2023-05-21T14:53:08;20.02;;;5.18;;
59492;SDS011;45497;43.996;22.876;2023-05-21T14:55:35;14.30;;;4.93;;
59492;SDS011;45497;43.996;22.876;2023-05-21T14:58:02;17.30;;;4.90;;